sensor_id;sensor_type;location;lat;lon;timestamp;P1;durP1;ratioP1;P2;durP2;ratioP2
22715;SDS011;11525;51.152;4.456;2023-05-07T00:00:00;17.45;;;11.88;;
22715;SDS011;11525;51.152;4.456;2023-05-07T00:02:26;17.65;;;11.77;;
22715;SDS011;11525;51.152;4.456;2023-05-07T00:04:51;16.30;;;12.93;;
22715;SDS011;11525;51.152;4.456;2023-05-07T00:07:17;15.80;;;12.50;;
22715;SDS011;11525;51.152;4.456;2023-05-07T00:09:43;16.30;;;12.32;;
22715;SDS011;11525;51.152;4.456;2023-05-07T00:12:09;13.38;;;11.65;;
22715;SDS011;11525;51.152;4.456;2023-05-07T00:14:35;20.48;;;12.48;;
22715;SDS011;11525;51.152;4.456;2023-05-07T00:17:01;15.63;;;12.15;;
22715;SDS011;11525;51.152;4.456;2023-05-07T00:19:27;15.73;;;12.02;;
22715;SDS011;11525;51.152;4.456;2023-05-07T00:21:52;16.63;;;11.88;;
22715;SDS011;11525;51.152;4.456;2023-05-07T00:24:22;15.68;;;12.55;;
22715;SDS011;11525;51.152;4.456;2023-05-07T00:26:47;15.02;;;12.80;;
22715;SDS011;11525;51.152;4.456;2023-05-07T00:29:13;23.60;;;13.65;;
22715;SDS011;11525;51.152;4.456;2023-05-07T00:31:39;20.10;;;13.57;;
22715;SDS011;11525;51.152;4.456;2023-05-07T00:34:04;18.83;;;14.15;;
22715;SDS011;11525;51.152;4.456;2023-05-07T00:36:30;19.52;;;14.55;;
22715;SDS011;11525;51.152;4.456;2023-05-07T00:38:57;17.60;;;13.57;;
22715;SDS011;11525;51.152;4.456;2023-05-07T00:41:25;17.70;;;13.65;;
22715;SDS011;11525;51.152;4.456;2023-05-07T00:43:51;17.63;;;12.75;;
22715;SDS011;11525;51.152;4.456;2023-05-07T00:46:17;16.55;;;14.45;;
22715;SDS011;11525;51.152;4.456;2023-05-07T00:48:45;17.55;;;13.52;;
22715;SDS011;11525;51.152;4.456;2023-05-07T00:51:12;18.50;;;13.85;;
22715;SDS011;11525;51.152;4.456;2023-05-07T00:53:38;18.30;;;12.40;;
22715;SDS011;11525;51.152;4.456;2023-05-07T00:56:04;18.17;;;12.65;;
22715;SDS011;11525;51.152;4.456;2023-05-07T00:58:31;19.58;;;13.82;;
22715;SDS011;11525;51.152;4.456;2023-05-07T01:00:57;21.13;;;12.85;;
22715;SDS011;11525;51.152;4.456;2023-05-07T01:03:23;18.23;;;12.80;;
22715;SDS011;11525;51.152;4.456;2023-05-07T01:05:49;19.73;;;12.60;;
22715;SDS011;11525;51.152;4.456;2023-05-07T01:08:17;16.45;;;12.35;;
22715;SDS011;11525;51.152;4.456;2023-05-07T01:10:43;18.73;;;13.00;;
22715;SDS011;11525;51.152;4.456;2023-05-07T01:13:10;20.70;;;13.27;;
22715;SDS011;11525;51.152;4.456;2023-05-07T01:15:37;17.05;;;13.18;;
22715;SDS011;11525;51.152;4.456;2023-05-07T01:18:03;17.02;;;12.13;;
22715;SDS011;11525;51.152;4.456;2023-05-07T01:20:29;18.00;;;13.45;;
22715;SDS011;11525;51.152;4.456;2023-05-07T01:22:55;15.00;;;11.57;;
22715;SDS011;11525;51.152;4.456;2023-05-07T01:25:22;18.17;;;12.07;;
22715;SDS011;11525;51.152;4.456;2023-05-07T01:27:49;19.80;;;13.90;;
22715;SDS011;11525;51.152;4.456;2023-05-07T01:30:14;19.02;;;13.18;;
22715;SDS011;11525;51.152;4.456;2023-05-07T01:32:48;22.65;;;14.82;;
22715;SDS011;11525;51.152;4.456;2023-05-07T01:35:22;18.48;;;13.57;;
22715;SDS011;11525;51.152;4.456;2023-05-07T01:37:51;15.68;;;13.43;;
22715;SDS011;11525;51.152;4.456;2023-05-07T01:40:18;18.52;;;14.77;;
22715;SDS011;11525;51.152;4.456;2023-05-07T01:42:44;18.45;;;15.45;;
22715;SDS011;11525;51.152;4.456;2023-05-07T01:45:11;20.95;;;15.38;;
22715;SDS011;11525;51.152;4.456;2023-05-07T01:47:36;20.80;;;14.98;;
22715;SDS011;11525;51.152;4.456;2023-05-07T01:50:03;17.02;;;12.90;;
22715;SDS011;11525;51.152;4.456;2023-05-07T01:52:30;19.40;;;15.10;;
22715;SDS011;11525;51.152;4.456;2023-05-07T01:54:56;19.90;;;13.77;;
22715;SDS011;11525;51.152;4.456;2023-05-07T01:57:22;21.90;;;15.68;;
22715;SDS011;11525;51.152;4.456;2023-05-07T01:59:48;17.90;;;14.18;;
22715;SDS011;11525;51.152;4.456;2023-05-07T02:02:13;20.02;;;15.38;;
22715;SDS011;11525;51.152;4.456;2023-05-07T02:04:39;20.13;;;15.00;;
22715;SDS011;11525;51.152;4.456;2023-05-07T02:07:05;21.27;;;16.20;;
22715;SDS011;11525;51.152;4.456;2023-05-07T02:09:30;18.98;;;15.73;;
22715;SDS011;11525;51.152;4.456;2023-05-07T02:11:56;26.33;;;16.70;;
22715;SDS011;11525;51.152;4.456;2023-05-07T02:14:22;19.45;;;16.42;;
22715;SDS011;11525;51.152;4.456;2023-05-07T02:16:47;20.63;;;15.80;;
22715;SDS011;11525;51.152;4.456;2023-05-07T02:19:13;21.48;;;16.55;;
22715;SDS011;11525;51.152;4.456;2023-05-07T02:21:39;23.42;;;15.55;;
22715;SDS011;11525;51.152;4.456;2023-05-07T02:24:06;21.67;;;16.40;;
22715;SDS011;11525;51.152;4.456;2023-05-07T02:26:31;20.02;;;17.13;;
22715;SDS011;11525;51.152;4.456;2023-05-07T02:28:57;21.48;;;15.90;;
22715;SDS011;11525;51.152;4.456;2023-05-07T02:31:23;22.73;;;16.88;;
22715;SDS011;11525;51.152;4.456;2023-05-07T02:33:48;22.20;;;16.42;;
22715;SDS011;11525;51.152;4.456;2023-05-07T02:36:14;20.90;;;16.48;;
22715;SDS011;11525;51.152;4.456;2023-05-07T02:38:40;24.20;;;16.00;;
22715;SDS011;11525;51.152;4.456;2023-05-07T02:41:06;20.63;;;16.20;;
22715;SDS011;11525;51.152;4.456;2023-05-07T02:43:31;18.38;;;15.30;;
22715;SDS011;11525;51.152;4.456;2023-05-07T02:46:04;20.08;;;16.65;;
22715;SDS011;11525;51.152;4.456;2023-05-07T02:48:30;20.85;;;14.93;;
22715;SDS011;11525;51.152;4.456;2023-05-07T02:50:57;18.15;;;16.25;;
22715;SDS011;11525;51.152;4.456;2023-05-07T02:53:24;23.15;;;15.95;;
22715;SDS011;11525;51.152;4.456;2023-05-07T02:55:53;17.42;;;14.23;;
22715;SDS011;11525;51.152;4.456;2023-05-07T02:58:21;20.65;;;15.07;;
22715;SDS011;11525;51.152;4.456;2023-05-07T03:00:47;16.63;;;13.95;;
22715;SDS011;11525;51.152;4.456;2023-05-07T03:03:13;19.15;;;15.05;;
22715;SDS011;11525;51.152;4.456;2023-05-07T03:05:39;17.27;;;14.82;;
22715;SDS011;11525;51.152;4.456;2023-05-07T03:08:05;17.73;;;15.02;;
22715;SDS011;11525;51.152;4.456;2023-05-07T03:10:31;18.92;;;15.07;;
22715;SDS011;11525;51.152;4.456;2023-05-07T03:12:57;17.63;;;15.20;;
22715;SDS011;11525;51.152;4.456;2023-05-07T03:15:23;18.55;;;14.38;;
22715;SDS011;11525;51.152;4.456;2023-05-07T03:17:48;18.15;;;14.88;;
22715;SDS011;11525;51.152;4.456;2023-05-07T03:20:14;16.10;;;12.68;;
22715;SDS011;11525;51.152;4.456;2023-05-07T03:22:40;15.93;;;14.15;;
22715;SDS011;11525;51.152;4.456;2023-05-07T03:25:06;19.90;;;14.00;;
22715;SDS011;11525;51.152;4.456;2023-05-07T03:27:32;15.57;;;13.50;;
22715;SDS011;11525;51.152;4.456;2023-05-07T03:29:58;14.70;;;13.07;;
22715;SDS011;11525;51.152;4.456;2023-05-07T03:32:23;19.92;;;15.30;;
22715;SDS011;11525;51.152;4.456;2023-05-07T03:34:50;17.20;;;13.23;;
22715;SDS011;11525;51.152;4.456;2023-05-07T03:37:15;16.70;;;14.40;;
22715;SDS011;11525;51.152;4.456;2023-05-07T03:39:41;19.80;;;14.15;;
22715;SDS011;11525;51.152;4.456;2023-05-07T03:42:07;20.10;;;15.05;;
22715;SDS011;11525;51.152;4.456;2023-05-07T03:44:32;21.25;;;15.73;;
22715;SDS011;11525;51.152;4.456;2023-05-07T03:46:58;16.08;;;14.38;;
22715;SDS011;11525;51.152;4.456;2023-05-07T03:49:24;17.63;;;14.50;;
22715;SDS011;11525;51.152;4.456;2023-05-07T03:51:50;16.55;;;13.95;;
22715;SDS011;11525;51.152;4.456;2023-05-07T03:54:15;21.30;;;14.75;;
22715;SDS011;11525;51.152;4.456;2023-05-07T03:56:41;21.00;;;15.10;;
22715;SDS011;11525;51.152;4.456;2023-05-07T03:59:07;21.83;;;15.88;;
22715;SDS011;11525;51.152;4.456;2023-05-07T04:01:32;16.25;;;14.45;;
22715;SDS011;11525;51.152;4.456;2023-05-07T04:03:59;18.55;;;15.13;;
22715;SDS011;11525;51.152;4.456;2023-05-07T04:06:25;18.92;;;15.23;;
22715;SDS011;11525;51.152;4.456;2023-05-07T04:08:51;21.05;;;14.52;;
22715;SDS011;11525;51.152;4.456;2023-05-07T04:11:16;16.95;;;14.25;;
22715;SDS011;11525;51.152;4.456;2023-05-07T04:13:42;18.55;;;14.45;;
22715;SDS011;11525;51.152;4.456;2023-05-07T04:16:08;19.67;;;15.27;;
22715;SDS011;11525;51.152;4.456;2023-05-07T04:18:33;17.23;;;15.43;;
22715;SDS011;11525;51.152;4.456;2023-05-07T04:20:59;16.80;;;15.05;;
22715;SDS011;11525;51.152;4.456;2023-05-07T04:23:25;22.17;;;15.30;;
22715;SDS011;11525;51.152;4.456;2023-05-07T04:25:50;18.80;;;14.27;;
22715;SDS011;11525;51.152;4.456;2023-05-07T04:28:16;22.38;;;15.85;;
22715;SDS011;11525;51.152;4.456;2023-05-07T04:30:41;19.92;;;15.27;;
22715;SDS011;11525;51.152;4.456;2023-05-07T04:33:07;21.05;;;15.13;;
22715;SDS011;11525;51.152;4.456;2023-05-07T04:35:33;17.60;;;14.60;;
22715;SDS011;11525;51.152;4.456;2023-05-07T04:37:59;18.77;;;14.98;;
22715;SDS011;11525;51.152;4.456;2023-05-07T04:40:25;18.45;;;16.15;;
22715;SDS011;11525;51.152;4.456;2023-05-07T04:42:51;14.90;;;13.20;;
22715;SDS011;11525;51.152;4.456;2023-05-07T04:45:18;21.55;;;15.50;;
22715;SDS011;11525;51.152;4.456;2023-05-07T04:47:43;16.70;;;14.85;;
22715;SDS011;11525;51.152;4.456;2023-05-07T04:50:09;18.33;;;14.82;;
22715;SDS011;11525;51.152;4.456;2023-05-07T04:52:35;20.90;;;14.52;;
22715;SDS011;11525;51.152;4.456;2023-05-07T04:55:01;15.63;;;13.30;;
22715;SDS011;11525;51.152;4.456;2023-05-07T04:57:27;17.30;;;14.00;;
22715;SDS011;11525;51.152;4.456;2023-05-07T04:59:53;15.80;;;13.95;;
22715;SDS011;11525;51.152;4.456;2023-05-07T05:02:19;17.95;;;12.85;;
22715;SDS011;11525;51.152;4.456;2023-05-07T05:04:45;17.45;;;14.07;;
22715;SDS011;11525;51.152;4.456;2023-05-07T05:07:10;14.98;;;13.40;;
22715;SDS011;11525;51.152;4.456;2023-05-07T05:09:36;17.90;;;13.15;;
22715;SDS011;11525;51.152;4.456;2023-05-07T05:12:02;14.80;;;13.10;;
22715;SDS011;11525;51.152;4.456;2023-05-07T05:14:28;14.88;;;13.35;;
22715;SDS011;11525;51.152;4.456;2023-05-07T05:16:54;17.90;;;13.82;;
22715;SDS011;11525;51.152;4.456;2023-05-07T05:19:20;16.35;;;13.93;;
22715;SDS011;11525;51.152;4.456;2023-05-07T05:21:45;16.48;;;13.25;;
22715;SDS011;11525;51.152;4.456;2023-05-07T05:24:11;18.52;;;12.65;;
22715;SDS011;11525;51.152;4.456;2023-05-07T05:26:37;17.63;;;13.15;;
22715;SDS011;11525;51.152;4.456;2023-05-07T05:29:03;16.08;;;12.95;;
22715;SDS011;11525;51.152;4.456;2023-05-07T05:31:28;18.83;;;13.18;;
22715;SDS011;11525;51.152;4.456;2023-05-07T05:33:54;15.02;;;13.18;;
22715;SDS011;11525;51.152;4.456;2023-05-07T05:36:20;13.90;;;11.98;;
22715;SDS011;11525;51.152;4.456;2023-05-07T05:38:46;16.13;;;13.18;;
22715;SDS011;11525;51.152;4.456;2023-05-07T05:41:11;16.92;;;12.20;;
22715;SDS011;11525;51.152;4.456;2023-05-07T05:43:37;15.98;;;12.85;;
22715;SDS011;11525;51.152;4.456;2023-05-07T05:46:03;14.13;;;12.63;;
22715;SDS011;11525;51.152;4.456;2023-05-07T05:48:29;14.98;;;12.25;;
22715;SDS011;11525;51.152;4.456;2023-05-07T05:50:55;18.38;;;13.13;;
22715;SDS011;11525;51.152;4.456;2023-05-07T05:53:21;16.17;;;12.48;;
22715;SDS011;11525;51.152;4.456;2023-05-07T05:55:47;17.58;;;12.45;;
22715;SDS011;11525;51.152;4.456;2023-05-07T05:58:13;15.85;;;13.02;;
22715;SDS011;11525;51.152;4.456;2023-05-07T06:00:40;16.80;;;13.75;;
22715;SDS011;11525;51.152;4.456;2023-05-07T06:03:06;16.48;;;13.90;;
22715;SDS011;11525;51.152;4.456;2023-05-07T06:05:32;16.17;;;13.68;;
22715;SDS011;11525;51.152;4.456;2023-05-07T06:07:58;15.02;;;13.38;;
22715;SDS011;11525;51.152;4.456;2023-05-07T06:10:23;17.40;;;13.15;;
22715;SDS011;11525;51.152;4.456;2023-05-07T06:12:51;14.40;;;12.57;;
22715;SDS011;11525;51.152;4.456;2023-05-07T06:15:16;20.88;;;14.02;;
22715;SDS011;11525;51.152;4.456;2023-05-07T06:17:42;19.48;;;14.02;;
22715;SDS011;11525;51.152;4.456;2023-05-07T06:20:08;15.07;;;12.70;;
22715;SDS011;11525;51.152;4.456;2023-05-07T06:22:34;14.52;;;13.02;;
22715;SDS011;11525;51.152;4.456;2023-05-07T06:25:00;16.05;;;12.90;;
22715;SDS011;11525;51.152;4.456;2023-05-07T06:27:25;15.98;;;12.73;;
22715;SDS011;11525;51.152;4.456;2023-05-07T06:29:53;15.95;;;13.30;;
22715;SDS011;11525;51.152;4.456;2023-05-07T06:32:18;18.27;;;13.27;;
22715;SDS011;11525;51.152;4.456;2023-05-07T06:34:44;16.42;;;12.32;;
22715;SDS011;11525;51.152;4.456;2023-05-07T06:37:10;18.13;;;13.27;;
22715;SDS011;11525;51.152;4.456;2023-05-07T06:39:35;16.08;;;12.20;;
22715;SDS011;11525;51.152;4.456;2023-05-07T06:42:01;16.27;;;12.40;;
22715;SDS011;11525;51.152;4.456;2023-05-07T06:44:27;13.77;;;12.38;;
22715;SDS011;11525;51.152;4.456;2023-05-07T06:46:53;13.07;;;11.38;;
22715;SDS011;11525;51.152;4.456;2023-05-07T06:49:18;13.80;;;12.30;;
22715;SDS011;11525;51.152;4.456;2023-05-07T06:51:44;18.83;;;13.18;;
22715;SDS011;11525;51.152;4.456;2023-05-07T06:54:10;14.02;;;12.55;;
22715;SDS011;11525;51.152;4.456;2023-05-07T06:56:36;15.73;;;13.68;;
22715;SDS011;11525;51.152;4.456;2023-05-07T06:59:01;14.63;;;12.80;;
22715;SDS011;11525;51.152;4.456;2023-05-07T07:01:27;18.10;;;12.98;;
22715;SDS011;11525;51.152;4.456;2023-05-07T07:03:53;17.23;;;13.13;;
22715;SDS011;11525;51.152;4.456;2023-05-07T07:06:19;14.95;;;13.27;;
22715;SDS011;11525;51.152;4.456;2023-05-07T07:08:45;18.80;;;13.05;;
22715;SDS011;11525;51.152;4.456;2023-05-07T07:11:11;15.98;;;13.50;;
22715;SDS011;11525;51.152;4.456;2023-05-07T07:13:36;15.75;;;13.27;;
22715;SDS011;11525;51.152;4.456;2023-05-07T07:16:02;14.82;;;13.32;;
22715;SDS011;11525;51.152;4.456;2023-05-07T07:18:28;15.02;;;12.95;;
22715;SDS011;11525;51.152;4.456;2023-05-07T07:20:54;15.90;;;12.75;;
22715;SDS011;11525;51.152;4.456;2023-05-07T07:23:20;14.85;;;13.40;;
22715;SDS011;11525;51.152;4.456;2023-05-07T07:25:45;16.73;;;13.40;;
22715;SDS011;11525;51.152;4.456;2023-05-07T07:28:11;13.45;;;12.00;;
22715;SDS011;11525;51.152;4.456;2023-05-07T07:30:37;15.77;;;13.00;;
22715;SDS011;11525;51.152;4.456;2023-05-07T07:33:03;13.63;;;12.23;;
22715;SDS011;11525;51.152;4.456;2023-05-07T07:35:30;14.65;;;12.25;;
22715;SDS011;11525;51.152;4.456;2023-05-07T07:37:58;14.43;;;12.23;;
22715;SDS011;11525;51.152;4.456;2023-05-07T07:40:24;17.75;;;13.15;;
22715;SDS011;11525;51.152;4.456;2023-05-07T07:42:53;13.32;;;11.32;;
22715;SDS011;11525;51.152;4.456;2023-05-07T07:45:19;15.75;;;12.35;;
22715;SDS011;11525;51.152;4.456;2023-05-07T07:47:45;17.95;;;11.48;;
22715;SDS011;11525;51.152;4.456;2023-05-07T07:50:11;14.95;;;11.43;;
22715;SDS011;11525;51.152;4.456;2023-05-07T07:52:37;10.90;;;9.52;;
22715;SDS011;11525;51.152;4.456;2023-05-07T07:55:03;12.75;;;10.73;;
22715;SDS011;11525;51.152;4.456;2023-05-07T07:57:29;21.00;;;11.07;;
22715;SDS011;11525;51.152;4.456;2023-05-07T07:59:55;13.38;;;9.98;;
22715;SDS011;11525;51.152;4.456;2023-05-07T08:02:21;13.32;;;9.93;;
22715;SDS011;11525;51.152;4.456;2023-05-07T08:04:47;13.65;;;9.95;;
22715;SDS011;11525;51.152;4.456;2023-05-07T08:07:12;14.32;;;10.02;;
22715;SDS011;11525;51.152;4.456;2023-05-07T08:09:38;17.88;;;10.85;;
22715;SDS011;11525;51.152;4.456;2023-05-07T08:12:07;16.25;;;10.25;;
22715;SDS011;11525;51.152;4.456;2023-05-07T08:14:33;12.00;;;9.43;;
22715;SDS011;11525;51.152;4.456;2023-05-07T08:16:59;16.48;;;10.07;;
22715;SDS011;11525;51.152;4.456;2023-05-07T08:19:25;12.93;;;8.98;;
22715;SDS011;11525;51.152;4.456;2023-05-07T08:21:51;11.15;;;9.00;;
22715;SDS011;11525;51.152;4.456;2023-05-07T08:24:17;12.73;;;9.07;;
22715;SDS011;11525;51.152;4.456;2023-05-07T08:26:43;11.73;;;9.05;;
22715;SDS011;11525;51.152;4.456;2023-05-07T08:29:10;12.63;;;9.15;;
22715;SDS011;11525;51.152;4.456;2023-05-07T08:31:36;14.10;;;9.18;;
22715;SDS011;11525;51.152;4.456;2023-05-07T08:34:03;12.23;;;9.30;;
22715;SDS011;11525;51.152;4.456;2023-05-07T08:36:30;15.55;;;9.63;;
22715;SDS011;11525;51.152;4.456;2023-05-07T08:38:56;11.32;;;9.13;;
22715;SDS011;11525;51.152;4.456;2023-05-07T08:41:21;20.27;;;9.73;;
22715;SDS011;11525;51.152;4.456;2023-05-07T08:43:50;22.10;;;10.00;;
22715;SDS011;11525;51.152;4.456;2023-05-07T08:46:17;18.13;;;10.00;;
22715;SDS011;11525;51.152;4.456;2023-05-07T08:48:49;10.95;;;9.23;;
22715;SDS011;11525;51.152;4.456;2023-05-07T08:51:16;11.98;;;8.95;;
22715;SDS011;11525;51.152;4.456;2023-05-07T08:53:46;12.45;;;8.75;;
22715;SDS011;11525;51.152;4.456;2023-05-07T08:56:13;14.55;;;9.15;;
22715;SDS011;11525;51.152;4.456;2023-05-07T08:58:43;11.45;;;9.18;;
22715;SDS011;11525;51.152;4.456;2023-05-07T09:01:13;12.07;;;8.48;;
22715;SDS011;11525;51.152;4.456;2023-05-07T09:03:41;11.20;;;8.40;;
22715;SDS011;11525;51.152;4.456;2023-05-07T09:06:09;12.38;;;7.57;;
22715;SDS011;11525;51.152;4.456;2023-05-07T09:08:35;11.00;;;6.05;;
22715;SDS011;11525;51.152;4.456;2023-05-07T09:11:01;12.10;;;7.78;;
22715;SDS011;11525;51.152;4.456;2023-05-07T09:13:27;10.48;;;7.88;;
22715;SDS011;11525;51.152;4.456;2023-05-07T09:15:54;11.65;;;8.20;;
22715;SDS011;11525;51.152;4.456;2023-05-07T09:18:20;13.93;;;7.68;;
22715;SDS011;11525;51.152;4.456;2023-05-07T09:20:46;10.55;;;7.55;;
22715;SDS011;11525;51.152;4.456;2023-05-07T09:23:11;11.20;;;7.80;;
22715;SDS011;11525;51.152;4.456;2023-05-07T09:25:37;13.05;;;6.90;;
22715;SDS011;11525;51.152;4.456;2023-05-07T09:28:04;12.98;;;7.50;;
22715;SDS011;11525;51.152;4.456;2023-05-07T09:30:35;11.02;;;6.75;;
22715;SDS011;11525;51.152;4.456;2023-05-07T09:33:01;13.85;;;6.95;;
22715;SDS011;11525;51.152;4.456;2023-05-07T09:35:29;10.35;;;6.65;;
22715;SDS011;11525;51.152;4.456;2023-05-07T09:37:58;12.40;;;6.68;;
22715;SDS011;11525;51.152;4.456;2023-05-07T09:40:29;11.70;;;6.72;;
22715;SDS011;11525;51.152;4.456;2023-05-07T09:42:56;17.00;;;6.90;;
22715;SDS011;11525;51.152;4.456;2023-05-07T09:45:33;11.25;;;6.55;;
22715;SDS011;11525;51.152;4.456;2023-05-07T09:47:58;11.90;;;6.75;;
22715;SDS011;11525;51.152;4.456;2023-05-07T09:50:31;10.85;;;5.45;;
22715;SDS011;11525;51.152;4.456;2023-05-07T09:53:01;8.80;;;5.00;;
22715;SDS011;11525;51.152;4.456;2023-05-07T09:55:28;11.63;;;4.78;;
22715;SDS011;11525;51.152;4.456;2023-05-07T09:57:54;9.85;;;5.05;;
22715;SDS011;11525;51.152;4.456;2023-05-07T10:00:20;11.55;;;5.10;;
22715;SDS011;11525;51.152;4.456;2023-05-07T10:02:50;10.48;;;5.35;;
22715;SDS011;11525;51.152;4.456;2023-05-07T10:05:18;11.00;;;5.38;;
22715;SDS011;11525;51.152;4.456;2023-05-07T10:07:45;7.90;;;5.10;;
22715;SDS011;11525;51.152;4.456;2023-05-07T10:10:12;6.65;;;4.65;;
22715;SDS011;11525;51.152;4.456;2023-05-07T10:12:39;8.27;;;4.63;;
22715;SDS011;11525;51.152;4.456;2023-05-07T10:15:06;10.27;;;5.30;;
22715;SDS011;11525;51.152;4.456;2023-05-07T10:17:36;7.22;;;5.32;;
22715;SDS011;11525;51.152;4.456;2023-05-07T10:20:03;8.85;;;5.43;;
22715;SDS011;11525;51.152;4.456;2023-05-07T10:22:31;11.15;;;6.15;;
22715;SDS011;11525;51.152;4.456;2023-05-07T10:25:03;10.57;;;5.78;;
22715;SDS011;11525;51.152;4.456;2023-05-07T10:27:31;12.45;;;6.90;;
22715;SDS011;11525;51.152;4.456;2023-05-07T10:30:01;8.50;;;6.25;;
22715;SDS011;11525;51.152;4.456;2023-05-07T10:35:22;6.97;;;5.32;;
22715;SDS011;11525;51.152;4.456;2023-05-07T10:37:51;8.52;;;5.40;;
22715;SDS011;11525;51.152;4.456;2023-05-07T10:40:17;13.50;;;5.95;;
22715;SDS011;11525;51.152;4.456;2023-05-07T10:42:55;9.00;;;4.80;;
22715;SDS011;11525;51.152;4.456;2023-05-07T10:45:23;7.90;;;5.43;;
22715;SDS011;11525;51.152;4.456;2023-05-07T10:50:35;10.50;;;5.20;;
22715;SDS011;11525;51.152;4.456;2023-05-07T10:55:49;7.35;;;4.85;;
22715;SDS011;11525;51.152;4.456;2023-05-07T10:58:26;5.50;;;4.00;;
22715;SDS011;11525;51.152;4.456;2023-05-07T11:00:57;11.27;;;4.35;;
22715;SDS011;11525;51.152;4.456;2023-05-07T11:03:25;6.53;;;4.13;;
22715;SDS011;11525;51.152;4.456;2023-05-07T11:11:13;7.70;;;4.55;;
22715;SDS011;11525;51.152;4.456;2023-05-07T11:13:43;8.57;;;4.68;;
22715;SDS011;11525;51.152;4.456;2023-05-07T11:16:16;8.68;;;4.63;;
22715;SDS011;11525;51.152;4.456;2023-05-07T11:18:50;6.60;;;4.10;;
22715;SDS011;11525;51.152;4.456;2023-05-07T11:21:31;8.10;;;4.70;;
22715;SDS011;11525;51.152;4.456;2023-05-07T11:23:58;8.55;;;4.57;;
22715;SDS011;11525;51.152;4.456;2023-05-07T11:26:25;9.13;;;4.93;;
22715;SDS011;11525;51.152;4.456;2023-05-07T11:28:51;9.63;;;5.22;;
22715;SDS011;11525;51.152;4.456;2023-05-07T11:31:22;9.68;;;4.32;;
22715;SDS011;11525;51.152;4.456;2023-05-07T11:33:53;7.60;;;4.10;;
22715;SDS011;11525;51.152;4.456;2023-05-07T11:36:21;7.60;;;4.03;;
22715;SDS011;11525;51.152;4.456;2023-05-07T11:38:48;7.53;;;4.20;;
22715;SDS011;11525;51.152;4.456;2023-05-07T11:41:15;7.55;;;3.75;;
22715;SDS011;11525;51.152;4.456;2023-05-07T11:43:58;7.00;;;3.90;;
22715;SDS011;11525;51.152;4.456;2023-05-07T11:46:24;6.43;;;3.60;;
22715;SDS011;11525;51.152;4.456;2023-05-07T11:48:51;8.25;;;3.95;;
22715;SDS011;11525;51.152;4.456;2023-05-07T11:51:20;7.57;;;3.58;;
22715;SDS011;11525;51.152;4.456;2023-05-07T11:53:47;8.60;;;4.70;;
22715;SDS011;11525;51.152;4.456;2023-05-07T11:56:14;9.38;;;4.22;;
22715;SDS011;11525;51.152;4.456;2023-05-07T11:58:42;16.42;;;5.15;;
22715;SDS011;11525;51.152;4.456;2023-05-07T12:01:09;7.28;;;4.70;;
22715;SDS011;11525;51.152;4.456;2023-05-07T12:03:36;5.78;;;4.18;;
22715;SDS011;11525;51.152;4.456;2023-05-07T12:06:02;8.20;;;4.88;;
22715;SDS011;11525;51.152;4.456;2023-05-07T12:08:31;6.63;;;4.32;;
22715;SDS011;11525;51.152;4.456;2023-05-07T12:10:57;7.43;;;4.20;;
22715;SDS011;11525;51.152;4.456;2023-05-07T12:13:24;9.02;;;4.55;;
22715;SDS011;11525;51.152;4.456;2023-05-07T12:15:53;9.13;;;4.50;;
22715;SDS011;11525;51.152;4.456;2023-05-07T12:18:20;8.60;;;5.22;;
22715;SDS011;11525;51.152;4.456;2023-05-07T12:20:46;8.85;;;5.30;;
22715;SDS011;11525;51.152;4.456;2023-05-07T12:23:13;9.82;;;5.78;;
22715;SDS011;11525;51.152;4.456;2023-05-07T12:25:40;6.07;;;4.70;;
22715;SDS011;11525;51.152;4.456;2023-05-07T12:28:14;9.07;;;5.43;;
22715;SDS011;11525;51.152;4.456;2023-05-07T12:30:42;8.90;;;5.90;;
22715;SDS011;11525;51.152;4.456;2023-05-07T12:33:08;7.90;;;4.93;;
22715;SDS011;11525;51.152;4.456;2023-05-07T12:35:38;6.05;;;4.40;;
22715;SDS011;11525;51.152;4.456;2023-05-07T12:38:15;8.38;;;4.30;;
22715;SDS011;11525;51.152;4.456;2023-05-07T12:43:18;8.10;;;5.00;;
22715;SDS011;11525;51.152;4.456;2023-05-07T12:45:46;8.27;;;4.15;;
22715;SDS011;11525;51.152;4.456;2023-05-07T12:48:14;8.90;;;4.85;;
22715;SDS011;11525;51.152;4.456;2023-05-07T12:50:40;10.10;;;4.32;;
22715;SDS011;11525;51.152;4.456;2023-05-07T12:53:07;8.65;;;4.35;;
22715;SDS011;11525;51.152;4.456;2023-05-07T12:55:46;8.02;;;4.40;;
22715;SDS011;11525;51.152;4.456;2023-05-07T12:58:17;7.93;;;4.35;;
22715;SDS011;11525;51.152;4.456;2023-05-07T13:00:43;8.13;;;5.10;;
22715;SDS011;11525;51.152;4.456;2023-05-07T13:03:09;8.10;;;4.40;;
22715;SDS011;11525;51.152;4.456;2023-05-07T13:05:36;8.48;;;4.38;;
22715;SDS011;11525;51.152;4.456;2023-05-07T13:08:01;8.77;;;4.82;;
22715;SDS011;11525;51.152;4.456;2023-05-07T13:10:27;8.45;;;4.60;;
22715;SDS011;11525;51.152;4.456;2023-05-07T13:12:53;8.70;;;4.35;;
22715;SDS011;11525;51.152;4.456;2023-05-07T13:15:19;5.85;;;4.50;;
22715;SDS011;11525;51.152;4.456;2023-05-07T13:17:46;7.53;;;4.03;;
22715;SDS011;11525;51.152;4.456;2023-05-07T13:20:12;9.90;;;3.83;;
22715;SDS011;11525;51.152;4.456;2023-05-07T13:22:38;15.80;;;3.72;;
22715;SDS011;11525;51.152;4.456;2023-05-07T13:25:05;7.88;;;3.22;;
22715;SDS011;11525;51.152;4.456;2023-05-07T13:27:31;11.98;;;3.63;;
22715;SDS011;11525;51.152;4.456;2023-05-07T13:29:57;6.47;;;3.70;;
22715;SDS011;11525;51.152;4.456;2023-05-07T13:32:22;6.05;;;3.35;;
22715;SDS011;11525;51.152;4.456;2023-05-07T13:34:48;8.23;;;3.35;;
22715;SDS011;11525;51.152;4.456;2023-05-07T13:37:14;10.48;;;3.10;;
22715;SDS011;11525;51.152;4.456;2023-05-07T13:39:39;6.20;;;3.72;;
22715;SDS011;11525;51.152;4.456;2023-05-07T13:42:06;8.23;;;3.47;;
22715;SDS011;11525;51.152;4.456;2023-05-07T13:44:32;7.20;;;3.25;;
22715;SDS011;11525;51.152;4.456;2023-05-07T13:46:58;3.97;;;2.55;;
22715;SDS011;11525;51.152;4.456;2023-05-07T13:49:23;5.95;;;3.40;;
22715;SDS011;11525;51.152;4.456;2023-05-07T13:51:49;6.20;;;2.80;;
22715;SDS011;11525;51.152;4.456;2023-05-07T13:54:15;7.55;;;3.70;;
22715;SDS011;11525;51.152;4.456;2023-05-07T13:56:41;5.95;;;2.40;;
22715;SDS011;11525;51.152;4.456;2023-05-07T13:59:06;5.15;;;2.90;;
22715;SDS011;11525;51.152;4.456;2023-05-07T14:01:32;6.60;;;2.63;;
22715;SDS011;11525;51.152;4.456;2023-05-07T14:03:58;6.18;;;2.95;;
22715;SDS011;11525;51.152;4.456;2023-05-07T14:06:24;5.93;;;2.88;;
22715;SDS011;11525;51.152;4.456;2023-05-07T14:08:50;4.72;;;2.67;;
22715;SDS011;11525;51.152;4.456;2023-05-07T14:11:16;4.25;;;2.50;;
22715;SDS011;11525;51.152;4.456;2023-05-07T14:13:42;4.82;;;2.35;;
22715;SDS011;11525;51.152;4.456;2023-05-07T14:16:07;5.68;;;2.90;;
22715;SDS011;11525;51.152;4.456;2023-05-07T14:18:33;7.03;;;3.10;;
22715;SDS011;11525;51.152;4.456;2023-05-07T14:21:00;5.10;;;2.83;;
22715;SDS011;11525;51.152;4.456;2023-05-07T14:23:25;6.25;;;2.95;;
22715;SDS011;11525;51.152;4.456;2023-05-07T14:25:52;5.40;;;2.90;;
22715;SDS011;11525;51.152;4.456;2023-05-07T14:28:18;7.28;;;3.35;;
22715;SDS011;11525;51.152;4.456;2023-05-07T14:30:44;6.72;;;3.03;;
22715;SDS011;11525;51.152;4.456;2023-05-07T14:33:10;4.57;;;2.92;;
22715;SDS011;11525;51.152;4.456;2023-05-07T14:35:36;4.47;;;3.05;;
22715;SDS011;11525;51.152;4.456;2023-05-07T14:38:01;7.95;;;3.47;;
22715;SDS011;11525;51.152;4.456;2023-05-07T14:40:27;5.60;;;2.80;;
22715;SDS011;11525;51.152;4.456;2023-05-07T14:42:53;7.18;;;3.00;;